sensor_id;sensor_type;location;lat;lon;timestamp;pressure;altitude;pressure_sealevel;temperature;humidity
55755;BME280;41674;52.290;-1.474;2023-09-19T00:01:36;99992.19;;;12.35;80.40
55755;BME280;41674;52.290;-1.474;2023-09-19T00:04:06;99998.24;;;12.04;80.99
55755;BME280;41674;52.290;-1.474;2023-09-19T00:06:35;100005.97;;;12.42;81.04
55755;BME280;41674;52.290;-1.474;2023-09-19T00:09:05;100006.85;;;11.79;81.77
55755;BME280;41674;52.290;-1.474;2023-09-19T00:11:34;100005.84;;;12.03;80.88
55755;BME280;41674;52.290;-1.474;2023-09-19T00:14:04;99999.81;;;12.29;80.05
55755;BME280;41674;52.290;-1.474;2023-09-19T00:16:34;99998.47;;;11.79;80.93
55755;BME280;41674;52.290;-1.474;2023-09-19T00:19:03;99994.46;;;12.07;81.12
55755;BME280;41674;52.290;-1.474;2023-09-19T00:21:33;99990.28;;;11.24;82.15
55755;BME280;41674;52.290;-1.474;2023-09-19T00:24:03;99983.63;;;11.17;84.34
55755;BME280;41674;52.290;-1.474;2023-09-19T00:26:32;99985.32;;;11.14;84.35
55755;BME280;41674;52.290;-1.474;2023-09-19T00:29:02;99981.58;;;11.45;83.10
55755;BME280;41674;52.290;-1.474;2023-09-19T00:31:31;99975.06;;;11.04;84.88
55755;BME280;41674;52.290;-1.474;2023-09-19T00:34:01;99972.08;;;11.04;83.93
55755;BME280;41674;52.290;-1.474;2023-09-19T00:36:30;99977.32;;;11.07;83.75
55755;BME280;41674;52.290;-1.474;2023-09-19T00:39:00;99978.73;;;11.27;82.97
55755;BME280;41674;52.290;-1.474;2023-09-19T00:41:29;99979.63;;;11.42;82.41
55755;BME280;41674;52.290;-1.474;2023-09-19T00:43:59;99980.63;;;11.74;81.37
55755;BME280;41674;52.290;-1.474;2023-09-19T00:46:30;99983.04;;;11.12;85.38
55755;BME280;41674;52.290;-1.474;2023-09-19T00:48:59;99980.50;;;11.56;83.45
55755;BME280;41674;52.290;-1.474;2023-09-19T00:51:28;99984.13;;;11.85;82.33
55755;BME280;41674;52.290;-1.474;2023-09-19T00:53:58;99995.75;;;10.41;89.48
55755;BME280;41674;52.290;-1.474;2023-09-19T00:56:27;99981.45;;;11.08;87.70
55755;BME280;41674;52.290;-1.474;2023-09-19T00:58:57;99970.80;;;11.46;86.01
55755;BME280;41674;52.290;-1.474;2023-09-19T01:01:27;99961.91;;;11.28;86.20
55755;BME280;41674;52.290;-1.474;2023-09-19T01:03:56;99971.09;;;10.67;88.60
55755;BME280;41674;52.290;-1.474;2023-09-19T01:06:25;99971.22;;;11.13;87.68
55755;BME280;41674;52.290;-1.474;2023-09-19T01:08:55;99971.84;;;11.22;86.15
55755;BME280;41674;52.290;-1.474;2023-09-19T01:11:31;99970.15;;;10.74;89.15
55755;BME280;41674;52.290;-1.474;2023-09-19T01:14:00;99972.11;;;11.30;89.35
55755;BME280;41674;52.290;-1.474;2023-09-19T01:16:32;99980.03;;;11.41;87.64
55755;BME280;41674;52.290;-1.474;2023-09-19T01:19:00;99980.11;;;11.69;87.94
55755;BME280;41674;52.290;-1.474;2023-09-19T01:21:27;99971.60;;;11.32;87.47
55755;BME280;41674;52.290;-1.474;2023-09-19T01:24:10;99968.40;;;11.25;87.41
55755;BME280;41674;52.290;-1.474;2023-09-19T01:26:35;99966.90;;;11.26;86.94
55755;BME280;41674;52.290;-1.474;2023-09-19T01:28:54;99962.90;;;11.22;88.30
55755;BME280;41674;52.290;-1.474;2023-09-19T01:31:22;99962.73;;;10.85;88.71
55755;BME280;41674;52.290;-1.474;2023-09-19T01:33:55;99968.21;;;11.38;86.94
55755;BME280;41674;52.290;-1.474;2023-09-19T01:36:20;99966.73;;;11.53;86.04
55755;BME280;41674;52.290;-1.474;2023-09-19T01:38:50;99957.13;;;12.01;84.01
55755;BME280;41674;52.290;-1.474;2023-09-19T01:41:25;99958.40;;;11.09;87.53
55755;BME280;41674;52.290;-1.474;2023-09-19T01:43:49;99959.23;;;11.02;88.41
55755;BME280;41674;52.290;-1.474;2023-09-19T01:46:23;99955.59;;;11.59;85.74
55755;BME280;41674;52.290;-1.474;2023-09-19T01:48:57;99955.49;;;11.65;84.07
55755;BME280;41674;52.290;-1.474;2023-09-19T01:51:21;99947.56;;;12.00;83.24
55755;BME280;41674;52.290;-1.474;2023-09-19T01:53:53;99945.29;;;11.94;82.75
55755;BME280;41674;52.290;-1.474;2023-09-19T01:56:23;99943.59;;;11.64;84.38
55755;BME280;41674;52.290;-1.474;2023-09-19T01:58:48;99945.58;;;12.14;81.83
55755;BME280;41674;52.290;-1.474;2023-09-19T02:01:19;99945.41;;;12.22;80.87
55755;BME280;41674;52.290;-1.474;2023-09-19T02:03:46;99945.73;;;11.87;81.58
55755;BME280;41674;52.290;-1.474;2023-09-19T02:06:16;99944.91;;;11.90;81.30
55755;BME280;41674;52.290;-1.474;2023-09-19T02:08:45;99944.13;;;11.84;81.36
55755;BME280;41674;52.290;-1.474;2023-09-19T02:11:15;99937.88;;;11.74;81.53
55755;BME280;41674;52.290;-1.474;2023-09-19T02:13:44;99940.91;;;12.17;81.47
55755;BME280;41674;52.290;-1.474;2023-09-19T02:18:43;99942.90;;;11.51;82.08
55755;BME280;41674;52.290;-1.474;2023-09-19T02:21:13;99942.56;;;11.45;83.00
55755;BME280;41674;52.290;-1.474;2023-09-19T02:23:43;99942.92;;;11.63;83.44
55755;BME280;41674;52.290;-1.474;2023-09-19T02:26:12;99939.76;;;11.82;82.77
55755;BME280;41674;52.290;-1.474;2023-09-19T02:28:42;99944.06;;;11.53;83.61
55755;BME280;41674;52.290;-1.474;2023-09-19T02:31:11;99947.55;;;11.64;83.96
55755;BME280;41674;52.290;-1.474;2023-09-19T02:33:41;99950.69;;;12.03;82.98
55755;BME280;41674;52.290;-1.474;2023-09-19T02:36:11;99947.32;;;12.27;80.46
55755;BME280;41674;52.290;-1.474;2023-09-19T02:38:40;99941.73;;;12.62;79.10
55755;BME280;41674;52.290;-1.474;2023-09-19T02:41:10;99942.11;;;12.20;79.88
55755;BME280;41674;52.290;-1.474;2023-09-19T02:43:39;99933.84;;;12.16;80.66
55755;BME280;41674;52.290;-1.474;2023-09-19T02:46:09;99931.11;;;12.79;78.93
55755;BME280;41674;52.290;-1.474;2023-09-19T02:48:38;99916.31;;;12.94;77.90
55755;BME280;41674;52.290;-1.474;2023-09-19T02:51:08;99917.41;;;12.65;78.70
55755;BME280;41674;52.290;-1.474;2023-09-19T02:53:38;99916.53;;;13.17;77.98
55755;BME280;41674;52.290;-1.474;2023-09-19T02:56:07;99906.53;;;13.05;77.24
55755;BME280;41674;52.290;-1.474;2023-09-19T02:58:37;99900.96;;;12.43;79.65
55755;BME280;41674;52.290;-1.474;2023-09-19T03:01:09;99902.92;;;13.03;78.38
55755;BME280;41674;52.290;-1.474;2023-09-19T03:03:36;99908.70;;;12.54;79.18
55755;BME280;41674;52.290;-1.474;2023-09-19T03:06:05;99900.48;;;13.27;77.48
55755;BME280;41674;52.290;-1.474;2023-09-19T03:08:35;99888.59;;;12.38;78.81
55755;BME280;41674;52.290;-1.474;2023-09-19T03:11:05;99877.73;;;13.35;77.23
55755;BME280;41674;52.290;-1.474;2023-09-19T03:13:34;99877.72;;;13.11;78.33
55755;BME280;41674;52.290;-1.474;2023-09-19T03:16:04;99872.44;;;12.24;81.86
55755;BME280;41674;52.290;-1.474;2023-09-19T03:18:35;99870.57;;;12.34;80.84
55755;BME280;41674;52.290;-1.474;2023-09-19T03:21:03;99866.57;;;12.51;81.52
55755;BME280;41674;52.290;-1.474;2023-09-19T03:23:32;99872.46;;;12.97;80.76
55755;BME280;41674;52.290;-1.474;2023-09-19T03:26:02;99862.53;;;11.80;86.73
55755;BME280;41674;52.290;-1.474;2023-09-19T03:28:33;99851.94;;;12.37;85.14
55755;BME280;41674;52.290;-1.474;2023-09-19T03:31:02;99856.50;;;11.89;87.14
55755;BME280;41674;52.290;-1.474;2023-09-19T03:33:31;99859.13;;;12.34;85.91
55755;BME280;41674;52.290;-1.474;2023-09-19T03:36:01;99864.02;;;12.07;87.08
55755;BME280;41674;52.290;-1.474;2023-09-19T03:38:31;99859.26;;;12.13;87.75
55755;BME280;41674;52.290;-1.474;2023-09-19T03:41:00;99855.47;;;12.08;91.29
55755;BME280;41674;52.290;-1.474;2023-09-19T03:43:29;99849.58;;;12.06;90.84
55755;BME280;41674;52.290;-1.474;2023-09-19T03:46:01;99848.00;;;12.13;90.72
55755;BME280;41674;52.290;-1.474;2023-09-19T03:48:28;99843.49;;;11.74;92.10
55755;BME280;41674;52.290;-1.474;2023-09-19T03:50:58;99839.05;;;12.11;92.57
55755;BME280;41674;52.290;-1.474;2023-09-19T03:53:27;99842.26;;;11.28;94.26
55755;BME280;41674;52.290;-1.474;2023-09-19T03:55:57;99831.07;;;11.86;91.94
55755;BME280;41674;52.290;-1.474;2023-09-19T03:58:26;99833.74;;;12.00;94.18
55755;BME280;41674;52.290;-1.474;2023-09-19T04:00:56;99833.83;;;12.01;91.12
55755;BME280;41674;52.290;-1.474;2023-09-19T04:03:26;99832.36;;;12.53;91.14
55755;BME280;41674;52.290;-1.474;2023-09-19T04:05:55;99838.00;;;11.20;97.98
55755;BME280;41674;52.290;-1.474;2023-09-19T04:10:54;99818.22;;;12.43;92.87
55755;BME280;41674;52.290;-1.474;2023-09-19T04:13:24;99811.02;;;12.45;93.15
55755;BME280;41674;52.290;-1.474;2023-09-19T04:15:54;99807.96;;;12.09;93.79
55755;BME280;41674;52.290;-1.474;2023-09-19T04:18:23;99797.89;;;12.55;94.19
55755;BME280;41674;52.290;-1.474;2023-09-19T04:20:52;99784.42;;;12.38;95.84
55755;BME280;41674;52.290;-1.474;2023-09-19T04:23:22;99777.10;;;11.55;100.00
55755;BME280;41674;52.290;-1.474;2023-09-19T04:25:51;99768.34;;;11.60;100.00
55755;BME280;41674;52.290;-1.474;2023-09-19T04:28:21;99756.97;;;11.66;100.00
55755;BME280;41674;52.290;-1.474;2023-09-19T04:30:51;99754.09;;;11.96;100.00
55755;BME280;41674;52.290;-1.474;2023-09-19T04:33:20;99753.23;;;11.91;100.00
55755;BME280;41674;52.290;-1.474;2023-09-19T04:35:50;99757.70;;;11.87;100.00
55755;BME280;41674;52.290;-1.474;2023-09-19T04:38:19;99762.82;;;11.86;100.00
55755;BME280;41674;52.290;-1.474;2023-09-19T04:40:49;99754.86;;;11.92;100.00
55755;BME280;41674;52.290;-1.474;2023-09-19T04:43:23;99758.99;;;11.84;100.00
55755;BME280;41674;52.290;-1.474;2023-09-19T04:45:49;99758.72;;;11.69;100.00
55755;BME280;41674;52.290;-1.474;2023-09-19T04:48:18;99758.01;;;11.87;100.00
55755;BME280;41674;52.290;-1.474;2023-09-19T04:50:48;99761.18;;;11.98;100.00
55755;BME280;41674;52.290;-1.474;2023-09-19T04:53:17;99752.28;;;11.68;100.00
55755;BME280;41674;52.290;-1.474;2023-09-19T04:55:50;99756.20;;;11.21;100.00
55755;BME280;41674;52.290;-1.474;2023-09-19T04:58:16;99759.50;;;11.26;100.00
55755;BME280;41674;52.290;-1.474;2023-09-19T05:00:45;99751.54;;;11.70;100.00
55755;BME280;41674;52.290;-1.474;2023-09-19T05:03:15;99738.60;;;11.69;100.00
55755;BME280;41674;52.290;-1.474;2023-09-19T05:05:45;99738.30;;;11.65;100.00
55755;BME280;41674;52.290;-1.474;2023-09-19T05:08:14;99731.83;;;11.30;100.00
55755;BME280;41674;52.290;-1.474;2023-09-19T05:10:44;99720.48;;;11.49;100.00
55755;BME280;41674;52.290;-1.474;2023-09-19T05:13:13;99723.48;;;11.39;100.00
55755;BME280;41674;52.290;-1.474;2023-09-19T05:15:43;99707.72;;;10.99;100.00
55755;BME280;41674;52.290;-1.474;2023-09-19T05:18:13;99704.36;;;10.92;100.00
55755;BME280;41674;52.290;-1.474;2023-09-19T05:20:42;99694.29;;;11.02;100.00
55755;BME280;41674;52.290;-1.474;2023-09-19T05:23:12;99694.83;;;11.40;100.00
55755;BME280;41674;52.290;-1.474;2023-09-19T05:25:41;99696.12;;;11.03;100.00
55755;BME280;41674;52.290;-1.474;2023-09-19T05:28:11;99678.99;;;10.98;100.00
55755;BME280;41674;52.290;-1.474;2023-09-19T05:30:41;99673.34;;;11.08;100.00
55755;BME280;41674;52.290;-1.474;2023-09-19T05:33:10;99667.70;;;11.37;100.00
55755;BME280;41674;52.290;-1.474;2023-09-19T05:35:40;99657.01;;;11.11;100.00
55755;BME280;41674;52.290;-1.474;2023-09-19T05:38:09;99663.19;;;11.12;100.00
55755;BME280;41674;52.290;-1.474;2023-09-19T05:40:40;99679.21;;;11.75;100.00
55755;BME280;41674;52.290;-1.474;2023-09-19T05:43:09;99679.52;;;11.59;100.00
55755;BME280;41674;52.290;-1.474;2023-09-19T05:45:38;99676.13;;;11.26;100.00
55755;BME280;41674;52.290;-1.474;2023-09-19T05:48:09;99679.62;;;11.61;100.00
55755;BME280;41674;52.290;-1.474;2023-09-19T05:50:37;99662.15;;;11.55;100.00
55755;BME280;41674;52.290;-1.474;2023-09-19T05:53:07;99653.82;;;11.64;100.00
55755;BME280;41674;52.290;-1.474;2023-09-19T05:55:36;99642.38;;;11.30;100.00
55755;BME280;41674;52.290;-1.474;2023-09-19T05:58:06;99636.95;;;11.78;100.00
55755;BME280;41674;52.290;-1.474;2023-09-19T06:00:35;99644.65;;;11.76;100.00
55755;BME280;41674;52.290;-1.474;2023-09-19T06:03:05;99629.23;;;11.12;100.00
55755;BME280;41674;52.290;-1.474;2023-09-19T06:05:35;99631.03;;;11.41;100.00
55755;BME280;41674;52.290;-1.474;2023-09-19T06:08:04;99613.79;;;11.16;100.00
55755;BME280;41674;52.290;-1.474;2023-09-19T06:10:34;99615.70;;;11.61;100.00
55755;BME280;41674;52.290;-1.474;2023-09-19T06:13:04;99610.68;;;12.30;100.00
55755;BME280;41674;52.290;-1.474;2023-09-19T06:15:33;99611.27;;;11.85;100.00
55755;BME280;41674;52.290;-1.474;2023-09-19T06:18:03;99619.95;;;11.60;100.00
55755;BME280;41674;52.290;-1.474;2023-09-19T06:20:32;99622.08;;;12.03;100.00
55755;BME280;41674;52.290;-1.474;2023-09-19T06:23:03;99615.61;;;12.22;100.00
55755;BME280;41674;52.290;-1.474;2023-09-19T06:25:31;99612.66;;;12.21;100.00
55755;BME280;41674;52.290;-1.474;2023-09-19T06:28:01;99609.44;;;12.23;100.00
55755;BME280;41674;52.290;-1.474;2023-09-19T06:30:30;99602.27;;;11.84;100.00
55755;BME280;41674;52.290;-1.474;2023-09-19T06:33:00;99591.36;;;11.62;100.00
55755;BME280;41674;52.290;-1.474;2023-09-19T06:35:32;99590.90;;;12.36;100.00
55755;BME280;41674;52.290;-1.474;2023-09-19T06:38:01;99589.33;;;12.15;100.00
55755;BME280;41674;52.290;-1.474;2023-09-19T06:40:29;99585.61;;;12.26;100.00
55755;BME280;41674;52.290;-1.474;2023-09-19T06:42:58;99593.09;;;12.20;100.00
55755;BME280;41674;52.290;-1.474;2023-09-19T06:45:28;99586.99;;;12.13;100.00
55755;BME280;41674;52.290;-1.474;2023-09-19T06:47:57;99577.86;;;12.22;100.00
55755;BME280;41674;52.290;-1.474;2023-09-19T06:50:27;99584.63;;;12.18;100.00
55755;BME280;41674;52.290;-1.474;2023-09-19T06:52:57;99576.01;;;11.90;100.00
55755;BME280;41674;52.290;-1.474;2023-09-19T06:55:26;99567.97;;;12.05;100.00
55755;BME280;41674;52.290;-1.474;2023-09-19T06:57:55;99568.35;;;12.30;100.00
55755;BME280;41674;52.290;-1.474;2023-09-19T07:00:25;99569.79;;;12.53;100.00
55755;BME280;41674;52.290;-1.474;2023-09-19T07:02:56;99572.65;;;12.56;100.00
55755;BME280;41674;52.290;-1.474;2023-09-19T07:05:24;99568.01;;;12.19;100.00
55755;BME280;41674;52.290;-1.474;2023-09-19T07:07:54;99545.49;;;12.07;100.00
55755;BME280;41674;52.290;-1.474;2023-09-19T07:10:23;99554.34;;;12.18;100.00
55755;BME280;41674;52.290;-1.474;2023-09-19T07:12:56;99557.83;;;12.54;100.00
55755;BME280;41674;52.290;-1.474;2023-09-19T07:17:53;99559.28;;;12.51;100.00
55755;BME280;41674;52.290;-1.474;2023-09-19T07:22:51;99553.84;;;12.71;100.00
55755;BME280;41674;52.290;-1.474;2023-09-19T07:25:21;99552.75;;;13.04;100.00
55755;BME280;41674;52.290;-1.474;2023-09-19T07:27:50;99557.31;;;12.74;100.00
55755;BME280;41674;52.290;-1.474;2023-09-19T07:30:20;99566.09;;;12.53;100.00
55755;BME280;41674;52.290;-1.474;2023-09-19T07:32:49;99558.75;;;13.26;100.00
55755;BME280;41674;52.290;-1.474;2023-09-19T07:35:19;99545.00;;;13.25;100.00
55755;BME280;41674;52.290;-1.474;2023-09-19T07:37:49;99548.88;;;13.52;100.00
55755;BME280;41674;52.290;-1.474;2023-09-19T07:40:19;99554.45;;;12.95;100.00
55755;BME280;41674;52.290;-1.474;2023-09-19T07:42:48;99559.48;;;13.35;100.00
55755;BME280;41674;52.290;-1.474;2023-09-19T07:45:17;99555.23;;;13.69;100.00
55755;BME280;41674;52.290;-1.474;2023-09-19T07:47:48;99551.09;;;13.66;100.00
55755;BME280;41674;52.290;-1.474;2023-09-19T07:50:17;99549.66;;;13.99;98.34
55755;BME280;41674;52.290;-1.474;2023-09-19T07:52:46;99552.26;;;13.57;99.78
55755;BME280;41674;52.290;-1.474;2023-09-19T07:55:15;99557.46;;;12.99;100.00
55755;BME280;41674;52.290;-1.474;2023-09-19T07:57:44;99552.12;;;13.03;100.00
55755;BME280;41674;52.290;-1.474;2023-09-19T08:00:15;99564.98;;;13.11;99.66
55755;BME280;41674;52.290;-1.474;2023-09-19T08:02:44;99556.32;;;14.29;96.70
55755;BME280;41674;52.290;-1.474;2023-09-19T08:05:13;99546.70;;;13.69;100.00
55755;BME280;41674;52.290;-1.474;2023-09-19T08:07:44;99555.79;;;13.83;99.06
55755;BME280;41674;52.290;-1.474;2023-09-19T08:10:12;99563.92;;;13.66;100.00
55755;BME280;41674;52.290;-1.474;2023-09-19T08:12:43;99557.32;;;13.78;100.00
55755;BME280;41674;52.290;-1.474;2023-09-19T08:15:11;99550.44;;;13.59;100.00
55755;BME280;41674;52.290;-1.474;2023-09-19T08:17:41;99541.74;;;13.25;100.00
55755;BME280;41674;52.290;-1.474;2023-09-19T08:20:11;99531.60;;;13.28;100.00
55755;BME280;41674;52.290;-1.474;2023-09-19T08:22:40;99526.33;;;13.22;100.00
55755;BME280;41674;52.290;-1.474;2023-09-19T08:25:09;99522.97;;;13.30;100.00
55755;BME280;41674;52.290;-1.474;2023-09-19T08:27:39;99505.37;;;13.44;100.00
55755;BME280;41674;52.290;-1.474;2023-09-19T08:30:09;99509.37;;;13.50;100.00
55755;BME280;41674;52.290;-1.474;2023-09-19T08:32:38;99498.04;;;13.43;100.00
55755;BME280;41674;52.290;-1.474;2023-09-19T08:35:08;99482.70;;;13.57;100.00
55755;BME280;41674;52.290;-1.474;2023-09-19T08:37:37;99487.94;;;14.11;100.00
55755;BME280;41674;52.290;-1.474;2023-09-19T08:40:08;99470.90;;;14.06;100.00
55755;BME280;41674;52.290;-1.474;2023-09-19T08:42:47;99470.69;;;14.07;100.00
55755;BME280;41674;52.290;-1.474;2023-09-19T08:45:06;99472.08;;;13.78;100.00
55755;BME280;41674;52.290;-1.474;2023-09-19T08:47:43;99475.75;;;13.68;100.00
55755;BME280;41674;52.290;-1.474;2023-09-19T08:50:11;99471.56;;;14.01;100.00
55755;BME280;41674;52.290;-1.474;2023-09-19T08:52:41;99486.95;;;14.41;100.00
55755;BME280;41674;52.290;-1.474;2023-09-19T08:55:06;99488.22;;;14.21;100.00
55755;BME280;41674;52.290;-1.474;2023-09-19T08:57:34;99481.11;;;14.62;98.82
55755;BME280;41674;52.290;-1.474;2023-09-19T09:00:05;99489.01;;;14.32;100.00
55755;BME280;41674;52.290;-1.474;2023-09-19T09:02:33;99480.82;;;14.48;100.00
55755;BME280;41674;52.290;-1.474;2023-09-19T09:05:04;99489.38;;;14.24;100.00
55755;BME280;41674;52.290;-1.474;2023-09-19T09:07:33;99482.22;;;14.16;100.00
55755;BME280;41674;52.290;-1.474;2023-09-19T09:10:03;99485.99;;;13.58;100.00
55755;BME280;41674;52.290;-1.474;2023-09-19T09:12:31;99468.90;;;13.51;100.00
55755;BME280;41674;52.290;-1.474;2023-09-19T09:15:00;99464.67;;;14.12;100.00
55755;BME280;41674;52.290;-1.474;2023-09-19T09:17:30;99452.71;;;14.36;100.00
55755;BME280;41674;52.290;-1.474;2023-09-19T09:19:59;99450.00;;;14.29;100.00
55755;BME280;41674;52.290;-1.474;2023-09-19T09:22:29;99444.56;;;14.12;100.00
55755;BME280;41674;52.290;-1.474;2023-09-19T09:24:58;99440.72;;;14.38;100.00
55755;BME280;41674;52.290;-1.474;2023-09-19T09:27:28;99391.62;;;14.11;100.00
55755;BME280;41674;52.290;-1.474;2023-09-19T09:29:57;99422.39;;;14.47;100.00
55755;BME280;41674;52.290;-1.474;2023-09-19T09:32:28;99431.45;;;14.62;100.00
55755;BME280;41674;52.290;-1.474;2023-09-19T09:34:58;99437.88;;;14.14;100.00
55755;BME280;41674;52.290;-1.474;2023-09-19T09:37:27;99435.15;;;13.92;100.00
55755;BME280;41674;52.290;-1.474;2023-09-19T09:39:56;99437.96;;;14.33;100.00
55755;BME280;41674;52.290;-1.474;2023-09-19T09:42:31;99418.94;;;14.21;100.00
55755;BME280;41674;52.290;-1.474;2023-09-19T09:45:14;99469.01;;;14.20;100.00
55755;BME280;41674;52.290;-1.474;2023-09-19T09:49:53;99459.51;;;13.65;100.00
55755;BME280;41674;52.290;-1.474;2023-09-19T09:52:23;99465.22;;;14.01;100.00
55755;BME280;41674;52.290;-1.474;2023-09-19T09:54:59;99475.73;;;13.99;100.00
55755;BME280;41674;52.290;-1.474;2023-09-19T09:57:22;99470.08;;;14.08;100.00
55755;BME280;41674;52.290;-1.474;2023-09-19T09:59:53;99460.94;;;14.32;100.00
55755;BME280;41674;52.290;-1.474;2023-09-19T10:02:26;99462.78;;;14.61;100.00
55755;BME280;41674;52.290;-1.474;2023-09-19T10:04:52;99466.51;;;14.38;100.00
55755;BME280;41674;52.290;-1.474;2023-09-19T10:07:25;99456.55;;;14.17;100.00
55755;BME280;41674;52.290;-1.474;2023-09-19T10:09:50;99477.81;;;14.49;100.00
55755;BME280;41674;52.290;-1.474;2023-09-19T10:12:20;99468.72;;;14.24;100.00
55755;BME280;41674;52.290;-1.474;2023-09-19T10:14:49;99476.37;;;14.37;100.00
55755;BME280;41674;52.290;-1.474;2023-09-19T10:17:19;99474.88;;;14.30;100.00
55755;BME280;41674;52.290;-1.474;2023-09-19T10:19:54;99473.06;;;14.89;100.00
55755;BME280;41674;52.290;-1.474;2023-09-19T10:22:17;99471.46;;;14.93;100.00
55755;BME280;41674;52.290;-1.474;2023-09-19T10:24:47;99478.32;;;14.64;100.00
55755;BME280;41674;52.290;-1.474;2023-09-19T10:27:17;99474.32;;;14.84;100.00
55755;BME280;41674;52.290;-1.474;2023-09-19T10:29:49;99455.58;;;14.96;100.00
55755;BME280;41674;52.290;-1.474;2023-09-19T10:32:16;99472.06;;;15.28;100.00
55755;BME280;41674;52.290;-1.474;2023-09-19T10:34:47;99478.55;;;15.15;100.00
55755;BME280;41674;52.290;-1.474;2023-09-19T10:37:16;99458.28;;;15.01;100.00
55755;BME280;41674;52.290;-1.474;2023-09-19T10:39:46;99467.83;;;15.66;100.00
55755;BME280;41674;52.290;-1.474;2023-09-19T10:42:18;99458.75;;;15.63;100.00
55755;BME280;41674;52.290;-1.474;2023-09-19T10:44:45;99463.46;;;15.52;100.00
55755;BME280;41674;52.290;-1.474;2023-09-19T10:47:13;99460.64;;;15.08;100.00
55755;BME280;41674;52.290;-1.474;2023-09-19T10:49:44;99467.09;;;15.84;100.00
55755;BME280;41674;52.290;-1.474;2023-09-19T10:52:13;99469.82;;;15.20;100.00
55755;BME280;41674;52.290;-1.474;2023-09-19T10:54:45;99466.83;;;15.37;100.00
55755;BME280;41674;52.290;-1.474;2023-09-19T10:57:11;99477.81;;;15.47;100.00
55755;BME280;41674;52.290;-1.474;2023-09-19T11:02:17;99487.71;;;16.06;100.00
55755;BME280;41674;52.290;-1.474;2023-09-19T11:04:39;99501.29;;;15.37;100.00
55755;BME280;41674;52.290;-1.474;2023-09-19T11:07:10;99491.21;;;15.33;100.00
55755;BME280;41674;52.290;-1.474;2023-09-19T11:09:44;99495.76;;;15.34;100.00
55755;BME280;41674;52.290;-1.474;2023-09-19T11:12:08;99485.27;;;15.19;100.00
55755;BME280;41674;52.290;-1.474;2023-09-19T11:14:40;99486.51;;;15.20;100.00
55755;BME280;41674;52.290;-1.474;2023-09-19T11:22:06;99484.87;;;15.59;100.00
55755;BME280;41674;52.290;-1.474;2023-09-19T11:24:35;99483.25;;;15.33;100.00
55755;BME280;41674;52.290;-1.474;2023-09-19T11:27:12;99486.71;;;15.39;100.00
55755;BME280;41674;52.290;-1.474;2023-09-19T11:29:34;99489.39;;;15.30;100.00
55755;BME280;41674;52.290;-1.474;2023-09-19T11:32:04;99502.70;;;15.23;100.00
55755;BME280;41674;52.290;-1.474;2023-09-19T11:34:41;99493.87;;;15.21;100.00
55755;BME280;41674;52.290;-1.474;2023-09-19T11:37:03;99494.35;;;15.50;100.00
55755;BME280;41674;52.290;-1.474;2023-09-19T11:39:32;99497.64;;;16.15;100.00
55755;BME280;41674;52.290;-1.474;2023-09-19T11:44:33;99509.32;;;15.45;100.00
55755;BME280;41674;52.290;-1.474;2023-09-19T11:47:02;99502.86;;;15.52;100.00
55755;BME280;41674;52.290;-1.474;2023-09-19T11:49:32;99517.93;;;15.47;100.00
55755;BME280;41674;52.290;-1.474;2023-09-19T11:52:02;99488.68;;;15.31;100.00
55755;BME280;41674;52.290;-1.474;2023-09-19T11:57:00;99505.90;;;15.34;100.00
55755;BME280;41674;52.290;-1.474;2023-09-19T11:59:30;99499.49;;;15.13;100.00
55755;BME280;41674;52.290;-1.474;2023-09-19T12:02:00;99510.55;;;15.46;100.00
55755;BME280;41674;52.290;-1.474;2023-09-19T12:04:34;99506.59;;;14.97;100.00
55755;BME280;41674;52.290;-1.474;2023-09-19T12:06:57;99497.09;;;15.54;100.00
55755;BME280;41674;52.290;-1.474;2023-09-19T12:09:27;99511.65;;;15.45;100.00
55755;BME280;41674;52.290;-1.474;2023-09-19T12:11:56;99509.10;;;15.51;100.00
55755;BME280;41674;52.290;-1.474;2023-09-19T12:14:26;99516.05;;;15.76;100.00
55755;BME280;41674;52.290;-1.474;2023-09-19T12:16:56;99502.62;;;15.85;100.00
55755;BME280;41674;52.290;-1.474;2023-09-19T12:19:25;99504.45;;;15.86;100.00
55755;BME280;41674;52.290;-1.474;2023-09-19T12:21:56;99508.88;;;15.59;100.00
55755;BME280;41674;52.290;-1.474;2023-09-19T12:24:25;99508.98;;;15.81;100.00
55755;BME280;41674;52.290;-1.474;2023-09-19T12:26:53;99514.00;;;15.70;100.00
55755;BME280;41674;52.290;-1.474;2023-09-19T12:29:23;99507.49;;;15.89;100.00
55755;BME280;41674;52.290;-1.474;2023-09-19T12:31:53;99505.78;;;15.72;100.00
55755;BME280;41674;52.290;-1.474;2023-09-19T12:34:23;99512.70;;;16.10;100.00
55755;BME280;41674;52.290;-1.474;2023-09-19T12:37:05;99510.26;;;15.89;100.00
55755;BME280;41674;52.290;-1.474;2023-09-19T12:39:24;99508.70;;;15.97;100.00
55755;BME280;41674;52.290;-1.474;2023-09-19T12:41:50;99506.72;;;16.22;100.00
55755;BME280;41674;52.290;-1.474;2023-09-19T12:44:20;99501.05;;;15.59;100.00
55755;BME280;41674;52.290;-1.474;2023-09-19T12:46:49;99499.37;;;16.24;100.00
55755;BME280;41674;52.290;-1.474;2023-09-19T12:49:20;99491.54;;;16.73;100.00
55755;BME280;41674;52.290;-1.474;2023-09-19T12:51:49;99503.53;;;16.63;100.00
55755;BME280;41674;52.290;-1.474;2023-09-19T12:54:18;99495.20;;;16.76;100.00
55755;BME280;41674;52.290;-1.474;2023-09-19T12:56:47;99519.29;;;16.19;100.00
55755;BME280;41674;52.290;-1.474;2023-09-19T12:59:17;99502.37;;;15.95;100.00
55755;BME280;41674;52.290;-1.474;2023-09-19T13:01:46;99496.11;;;16.64;100.00
55755;BME280;41674;52.290;-1.474;2023-09-19T13:04:17;99490.51;;;16.80;100.00
55755;BME280;41674;52.290;-1.474;2023-09-19T13:06:46;99510.24;;;16.72;100.00
55755;BME280;41674;52.290;-1.474;2023-09-19T13:09:15;99499.14;;;16.33;100.00
55755;BME280;41674;52.290;-1.474;2023-09-19T13:11:44;99496.58;;;16.74;100.00
55755;BME280;41674;52.290;-1.474;2023-09-19T13:14:17;99498.93;;;16.21;100.00
55755;BME280;41674;52.290;-1.474;2023-09-19T13:16:54;99503.77;;;16.25;100.00
55755;BME280;41674;52.290;-1.474;2023-09-19T13:19:13;99500.25;;;16.42;100.00